sensor_id;sensor_type;location;lat;lon;timestamp;pressure;altitude;pressure_sealevel;temperature;humidity
57847;BME280;43675;50.030;21.952;2023-03-14T00:00:51;97617.04;;;7.97;50.09
57847;BME280;43675;50.030;21.952;2023-03-14T00:03:20;97615.92;;;8.01;49.99
57847;BME280;43675;50.030;21.952;2023-03-14T00:05:47;97612.63;;;8.05;49.83
57847;BME280;43675;50.030;21.952;2023-03-14T00:08:14;97611.19;;;8.09;49.80
57847;BME280;43675;50.030;21.952;2023-03-14T00:10:40;97616.77;;;8.14;49.68
57847;BME280;43675;50.030;21.952;2023-03-14T00:13:07;97618.23;;;8.18;49.69
57847;BME280;43675;50.030;21.952;2023-03-14T00:15:34;97627.68;;;8.22;49.56
57847;BME280;43675;50.030;21.952;2023-03-14T00:18:02;97629.66;;;8.25;49.43
57847;BME280;43675;50.030;21.952;2023-03-14T00:20:28;97625.29;;;8.26;49.32
57847;BME280;43675;50.030;21.952;2023-03-14T00:22:55;97618.78;;;8.24;49.43
57847;BME280;43675;50.030;21.952;2023-03-14T00:25:21;97616.73;;;8.24;49.34
57847;BME280;43675;50.030;21.952;2023-03-14T00:27:50;97611.19;;;8.22;49.30
57847;BME280;43675;50.030;21.952;2023-03-14T00:30:17;97601.94;;;8.22;49.43
57847;BME280;43675;50.030;21.952;2023-03-14T00:32:44;97598.27;;;8.23;49.39
57847;BME280;43675;50.030;21.952;2023-03-14T00:35:10;97589.05;;;8.20;49.20
57847;BME280;43675;50.030;21.952;2023-03-14T00:37:37;97580.83;;;8.17;49.07
57847;BME280;43675;50.030;21.952;2023-03-14T00:40:04;97582.79;;;8.16;49.02
57847;BME280;43675;50.030;21.952;2023-03-14T00:42:31;97580.73;;;8.15;49.07
57847;BME280;43675;50.030;21.952;2023-03-14T00:44:58;97573.90;;;8.16;49.03
57847;BME280;43675;50.030;21.952;2023-03-14T00:47:25;97570.17;;;8.18;48.92
57847;BME280;43675;50.030;21.952;2023-03-14T00:49:52;97573.83;;;8.18;49.06
57847;BME280;43675;50.030;21.952;2023-03-14T00:52:18;97566.46;;;8.19;49.03
57847;BME280;43675;50.030;21.952;2023-03-14T00:54:45;97559.80;;;8.19;48.98
57847;BME280;43675;50.030;21.952;2023-03-14T00:57:11;97552.73;;;8.19;48.84
57847;BME280;43675;50.030;21.952;2023-03-14T00:59:38;97551.45;;;8.18;48.83
57847;BME280;43675;50.030;21.952;2023-03-14T01:02:05;97544.16;;;8.17;48.83
57847;BME280;43675;50.030;21.952;2023-03-14T01:04:31;97534.64;;;8.15;48.89
57847;BME280;43675;50.030;21.952;2023-03-14T01:06:58;97529.98;;;8.13;48.64
57847;BME280;43675;50.030;21.952;2023-03-14T01:09:25;97526.56;;;8.10;48.71
57847;BME280;43675;50.030;21.952;2023-03-14T01:11:51;97521.68;;;8.07;48.66
57847;BME280;43675;50.030;21.952;2023-03-14T01:14:18;97517.09;;;8.03;48.60
57847;BME280;43675;50.030;21.952;2023-03-14T01:16:44;97519.86;;;8.01;48.69
57847;BME280;43675;50.030;21.952;2023-03-14T01:19:11;97510.08;;;8.01;48.45
57847;BME280;43675;50.030;21.952;2023-03-14T01:21:37;97506.70;;;8.01;48.62
57847;BME280;43675;50.030;21.952;2023-03-14T01:24:05;97503.33;;;8.02;48.21
57847;BME280;43675;50.030;21.952;2023-03-14T01:26:34;97495.48;;;8.05;48.06
57847;BME280;43675;50.030;21.952;2023-03-14T01:29:01;97494.60;;;8.09;47.91
57847;BME280;43675;50.030;21.952;2023-03-14T01:31:28;97492.15;;;8.13;47.75
57847;BME280;43675;50.030;21.952;2023-03-14T01:33:55;97478.12;;;8.15;47.73
57847;BME280;43675;50.030;21.952;2023-03-14T01:36:22;97480.98;;;8.16;47.53
57847;BME280;43675;50.030;21.952;2023-03-14T01:38:48;97474.58;;;8.17;47.65
57847;BME280;43675;50.030;21.952;2023-03-14T01:41:20;97469.42;;;8.18;47.51
57847;BME280;43675;50.030;21.952;2023-03-14T01:43:48;97457.30;;;8.21;47.47
57847;BME280;43675;50.030;21.952;2023-03-14T01:46:32;97440.25;;;8.25;47.55
57847;BME280;43675;50.030;21.952;2023-03-14T01:52:16;97436.98;;;8.32;47.51
57847;BME280;43675;50.030;21.952;2023-03-14T01:54:53;97431.47;;;8.34;47.40
57847;BME280;43675;50.030;21.952;2023-03-14T01:57:31;97427.35;;;8.34;47.33
57847;BME280;43675;50.030;21.952;2023-03-14T02:00:19;97429.58;;;8.33;47.24
57847;BME280;43675;50.030;21.952;2023-03-14T02:02:50;97433.47;;;8.50;47.23
57847;BME280;43675;50.030;21.952;2023-03-14T02:05:20;97442.59;;;8.58;47.10
57847;BME280;43675;50.030;21.952;2023-03-14T02:07:58;97438.91;;;8.64;46.82
57847;BME280;43675;50.030;21.952;2023-03-14T02:10:28;97435.41;;;8.57;47.12
57847;BME280;43675;50.030;21.952;2023-03-14T02:12:59;97430.61;;;8.61;47.11
57847;BME280;43675;50.030;21.952;2023-03-14T02:15:26;97426.95;;;8.53;47.17
57847;BME280;43675;50.030;21.952;2023-03-14T02:17:53;97424.27;;;8.41;47.33
57847;BME280;43675;50.030;21.952;2023-03-14T02:26:02;97407.34;;;8.13;47.51
57847;BME280;43675;50.030;21.952;2023-03-14T02:28:30;97403.44;;;8.08;47.44
57847;BME280;43675;50.030;21.952;2023-03-14T02:30:57;97396.91;;;8.04;47.49
57847;BME280;43675;50.030;21.952;2023-03-14T02:33:23;97399.60;;;7.98;47.36
57847;BME280;43675;50.030;21.952;2023-03-14T02:36:00;97391.02;;;7.91;47.35
57847;BME280;43675;50.030;21.952;2023-03-14T02:38:31;97393.45;;;7.83;47.51
57847;BME280;43675;50.030;21.952;2023-03-14T02:41:00;97388.12;;;7.78;47.49
57847;BME280;43675;50.030;21.952;2023-03-14T02:43:27;97388.80;;;7.71;47.64
57847;BME280;43675;50.030;21.952;2023-03-14T02:45:54;97386.98;;;7.65;47.58
57847;BME280;43675;50.030;21.952;2023-03-14T02:48:36;97384.04;;;7.60;47.66
57847;BME280;43675;50.030;21.952;2023-03-14T02:51:06;97379.43;;;7.56;47.64
57847;BME280;43675;50.030;21.952;2023-03-14T02:53:36;97380.06;;;7.54;47.58
57847;BME280;43675;50.030;21.952;2023-03-14T02:56:03;97377.31;;;7.51;47.56
57847;BME280;43675;50.030;21.952;2023-03-14T02:58:31;97375.17;;;7.48;47.53
57847;BME280;43675;50.030;21.952;2023-03-14T03:00:57;97372.21;;;7.43;47.53
57847;BME280;43675;50.030;21.952;2023-03-14T03:03:24;97370.39;;;7.39;47.58
57847;BME280;43675;50.030;21.952;2023-03-14T03:05:53;97357.61;;;7.33;47.50
57847;BME280;43675;50.030;21.952;2023-03-14T03:08:21;97352.59;;;7.27;47.49
57847;BME280;43675;50.030;21.952;2023-03-14T03:10:49;97353.73;;;7.25;47.53
57847;BME280;43675;50.030;21.952;2023-03-14T03:13:16;97359.33;;;7.24;47.42
57847;BME280;43675;50.030;21.952;2023-03-14T03:15:43;97351.23;;;7.22;47.38
57847;BME280;43675;50.030;21.952;2023-03-14T03:18:10;97347.13;;;7.18;47.56
57847;BME280;43675;50.030;21.952;2023-03-14T03:20:37;97332.89;;;7.15;47.45
57847;BME280;43675;50.030;21.952;2023-03-14T03:23:04;97323.42;;;7.14;47.55
57847;BME280;43675;50.030;21.952;2023-03-14T03:25:31;97324.84;;;7.15;47.49
57847;BME280;43675;50.030;21.952;2023-03-14T03:27:58;97320.89;;;7.17;47.46
57847;BME280;43675;50.030;21.952;2023-03-14T03:30:24;97330.02;;;7.17;47.45
57847;BME280;43675;50.030;21.952;2023-03-14T03:32:51;97326.77;;;7.18;47.34
57847;BME280;43675;50.030;21.952;2023-03-14T03:35:18;97323.38;;;7.20;47.29
57847;BME280;43675;50.030;21.952;2023-03-14T03:37:44;97323.68;;;7.22;47.37
57847;BME280;43675;50.030;21.952;2023-03-14T03:40:11;97315.64;;;7.22;47.30
57847;BME280;43675;50.030;21.952;2023-03-14T03:42:38;97315.77;;;7.23;47.19
57847;BME280;43675;50.030;21.952;2023-03-14T03:45:05;97310.35;;;7.26;47.15
57847;BME280;43675;50.030;21.952;2023-03-14T03:47:32;97312.88;;;7.28;47.06
57847;BME280;43675;50.030;21.952;2023-03-14T03:49:58;97307.98;;;7.33;46.84
57847;BME280;43675;50.030;21.952;2023-03-14T03:52:25;97296.47;;;7.44;46.75
57847;BME280;43675;50.030;21.952;2023-03-14T03:54:52;97288.25;;;7.42;46.67
57847;BME280;43675;50.030;21.952;2023-03-14T03:57:18;97276.73;;;7.38;46.79
57847;BME280;43675;50.030;21.952;2023-03-14T03:59:45;97272.66;;;7.36;46.86
57847;BME280;43675;50.030;21.952;2023-03-14T04:02:11;97266.84;;;7.33;46.89
57847;BME280;43675;50.030;21.952;2023-03-14T04:04:38;97265.00;;;7.31;46.99
57847;BME280;43675;50.030;21.952;2023-03-14T04:07:05;97252.64;;;7.29;46.93
57847;BME280;43675;50.030;21.952;2023-03-14T04:09:31;97252.66;;;7.34;46.79
57847;BME280;43675;50.030;21.952;2023-03-14T04:11:58;97244.34;;;7.34;46.79
57847;BME280;43675;50.030;21.952;2023-03-14T04:14:24;97235.22;;;7.35;46.73
57847;BME280;43675;50.030;21.952;2023-03-14T04:16:51;97232.98;;;7.37;46.63
57847;BME280;43675;50.030;21.952;2023-03-14T04:19:18;97218.08;;;7.39;46.64
57847;BME280;43675;50.030;21.952;2023-03-14T04:21:44;97213.18;;;7.39;46.54
57847;BME280;43675;50.030;21.952;2023-03-14T04:24:11;97212.73;;;7.40;46.41
57847;BME280;43675;50.030;21.952;2023-03-14T04:26:38;97204.30;;;7.43;46.30
57847;BME280;43675;50.030;21.952;2023-03-14T04:29:05;97194.27;;;7.44;46.39
57847;BME280;43675;50.030;21.952;2023-03-14T04:31:31;97188.95;;;7.44;46.25
57847;BME280;43675;50.030;21.952;2023-03-14T04:33:58;97193.14;;;7.42;46.22
57847;BME280;43675;50.030;21.952;2023-03-14T04:36:24;97190.40;;;7.42;46.31
57847;BME280;43675;50.030;21.952;2023-03-14T04:38:51;97204.27;;;7.43;46.31
57847;BME280;43675;50.030;21.952;2023-03-14T04:41:17;97206.25;;;7.44;46.32
57847;BME280;43675;50.030;21.952;2023-03-14T04:43:44;97207.48;;;7.46;46.23
57847;BME280;43675;50.030;21.952;2023-03-14T04:46:10;97198.20;;;7.49;46.14
57847;BME280;43675;50.030;21.952;2023-03-14T04:48:37;97198.25;;;7.51;46.09
57847;BME280;43675;50.030;21.952;2023-03-14T04:51:04;97198.19;;;7.52;46.02
57847;BME280;43675;50.030;21.952;2023-03-14T04:53:31;97192.44;;;7.53;46.19
57847;BME280;43675;50.030;21.952;2023-03-14T04:55:57;97196.10;;;7.54;46.21
57847;BME280;43675;50.030;21.952;2023-03-14T04:58:24;97196.56;;;7.54;46.29
57847;BME280;43675;50.030;21.952;2023-03-14T05:00:51;97193.98;;;7.53;46.42
57847;BME280;43675;50.030;21.952;2023-03-14T05:03:18;97185.44;;;7.53;46.34
57847;BME280;43675;50.030;21.952;2023-03-14T05:05:45;97188.34;;;7.54;46.29
57847;BME280;43675;50.030;21.952;2023-03-14T05:08:12;97181.38;;;7.55;46.25
57847;BME280;43675;50.030;21.952;2023-03-14T05:10:39;97175.95;;;7.56;46.57
57847;BME280;43675;50.030;21.952;2023-03-14T05:13:06;97169.34;;;7.56;46.40
57847;BME280;43675;50.030;21.952;2023-03-14T05:15:32;97162.74;;;7.57;46.48
57847;BME280;43675;50.030;21.952;2023-03-14T05:17:59;97169.17;;;7.58;46.51
57847;BME280;43675;50.030;21.952;2023-03-14T05:20:25;97169.08;;;7.56;46.64
57847;BME280;43675;50.030;21.952;2023-03-14T05:22:52;97163.21;;;7.54;46.80
57847;BME280;43675;50.030;21.952;2023-03-14T05:25:18;97161.26;;;7.55;46.61
57847;BME280;43675;50.030;21.952;2023-03-14T05:27:45;97165.59;;;7.60;46.51
57847;BME280;43675;50.030;21.952;2023-03-14T05:30:12;97158.52;;;7.65;46.69
57847;BME280;43675;50.030;21.952;2023-03-14T05:32:38;97156.31;;;7.68;46.63
57847;BME280;43675;50.030;21.952;2023-03-14T05:35:05;97156.83;;;7.72;46.63
57847;BME280;43675;50.030;21.952;2023-03-14T05:37:32;97159.70;;;7.76;46.58
57847;BME280;43675;50.030;21.952;2023-03-14T05:39:58;97156.52;;;7.81;46.56
57847;BME280;43675;50.030;21.952;2023-03-14T05:42:25;97153.52;;;7.85;46.44
57847;BME280;43675;50.030;21.952;2023-03-14T05:44:51;97152.02;;;7.89;46.35
57847;BME280;43675;50.030;21.952;2023-03-14T05:47:18;97139.80;;;7.94;46.29
57847;BME280;43675;50.030;21.952;2023-03-14T05:49:44;97143.88;;;8.00;46.19
57847;BME280;43675;50.030;21.952;2023-03-14T05:52:11;97144.35;;;8.05;46.26
57847;BME280;43675;50.030;21.952;2023-03-14T05:54:38;97149.02;;;8.11;46.20
57847;BME280;43675;50.030;21.952;2023-03-14T05:57:05;97146.14;;;8.17;46.31
57847;BME280;43675;50.030;21.952;2023-03-14T05:59:32;97151.55;;;8.22;46.33
57847;BME280;43675;50.030;21.952;2023-03-14T06:01:58;97146.73;;;8.29;46.21
57847;BME280;43675;50.030;21.952;2023-03-14T06:04:25;97136.53;;;8.37;46.21
57847;BME280;43675;50.030;21.952;2023-03-14T06:06:52;97134.00;;;8.46;45.99
57847;BME280;43675;50.030;21.952;2023-03-14T06:09:18;97125.55;;;8.55;45.79
57847;BME280;43675;50.030;21.952;2023-03-14T06:11:45;97121.31;;;8.60;45.93
57847;BME280;43675;50.030;21.952;2023-03-14T06:14:11;97119.13;;;8.66;45.69
57847;BME280;43675;50.030;21.952;2023-03-14T06:16:38;97114.08;;;8.71;45.60
57847;BME280;43675;50.030;21.952;2023-03-14T06:19:04;97109.48;;;8.77;45.56
57847;BME280;43675;50.030;21.952;2023-03-14T06:21:31;97109.55;;;8.84;45.33
57847;BME280;43675;50.030;21.952;2023-03-14T06:23:58;97086.94;;;8.91;45.34
57847;BME280;43675;50.030;21.952;2023-03-14T06:26:24;97106.03;;;8.98;45.13
57847;BME280;43675;50.030;21.952;2023-03-14T06:28:51;97103.91;;;9.05;45.02
57847;BME280;43675;50.030;21.952;2023-03-14T06:31:17;97116.09;;;9.14;45.21
57847;BME280;43675;50.030;21.952;2023-03-14T06:33:44;97110.30;;;9.23;44.98
57847;BME280;43675;50.030;21.952;2023-03-14T06:36:10;97110.62;;;9.33;45.12
57847;BME280;43675;50.030;21.952;2023-03-14T06:38:37;97101.77;;;9.45;45.12
57847;BME280;43675;50.030;21.952;2023-03-14T06:41:07;97092.77;;;9.57;44.90
57847;BME280;43675;50.030;21.952;2023-03-14T06:43:33;97102.23;;;9.71;44.81
57847;BME280;43675;50.030;21.952;2023-03-14T06:46:00;97106.63;;;9.83;44.72
57847;BME280;43675;50.030;21.952;2023-03-14T06:48:27;97110.45;;;9.95;44.63
57847;BME280;43675;50.030;21.952;2023-03-14T06:50:54;97116.94;;;10.08;44.72
57847;BME280;43675;50.030;21.952;2023-03-14T06:53:21;97103.59;;;10.19;44.41
57847;BME280;43675;50.030;21.952;2023-03-14T06:55:47;97108.20;;;10.29;44.39
57847;BME280;43675;50.030;21.952;2023-03-14T06:58:14;97096.31;;;10.39;44.48
57847;BME280;43675;50.030;21.952;2023-03-14T07:00:41;97107.48;;;10.51;44.33
57847;BME280;43675;50.030;21.952;2023-03-14T07:03:08;97114.21;;;10.63;44.36
57847;BME280;43675;50.030;21.952;2023-03-14T07:05:36;97113.52;;;10.77;43.96
57847;BME280;43675;50.030;21.952;2023-03-14T07:08:02;97117.41;;;10.91;43.73
57847;BME280;43675;50.030;21.952;2023-03-14T07:10:29;97117.50;;;11.02;43.54
57847;BME280;43675;50.030;21.952;2023-03-14T07:12:55;97116.86;;;11.13;43.46
57847;BME280;43675;50.030;21.952;2023-03-14T07:15:22;97111.41;;;11.24;43.34
57847;BME280;43675;50.030;21.952;2023-03-14T07:17:48;97116.86;;;11.34;43.22
57847;BME280;43675;50.030;21.952;2023-03-14T07:20:15;97109.15;;;11.43;43.11
57847;BME280;43675;50.030;21.952;2023-03-14T07:22:42;97111.40;;;11.51;42.89
57847;BME280;43675;50.030;21.952;2023-03-14T07:25:09;97110.17;;;11.59;43.05
57847;BME280;43675;50.030;21.952;2023-03-14T07:27:35;97107.52;;;11.67;42.81
57847;BME280;43675;50.030;21.952;2023-03-14T07:30:02;97096.60;;;11.75;42.85
57847;BME280;43675;50.030;21.952;2023-03-14T07:32:29;97081.84;;;11.80;42.77
57847;BME280;43675;50.030;21.952;2023-03-14T07:34:55;97085.30;;;11.82;42.52
57847;BME280;43675;50.030;21.952;2023-03-14T07:37:22;97082.50;;;11.84;42.63
57847;BME280;43675;50.030;21.952;2023-03-14T07:39:49;97078.49;;;11.90;42.47
57847;BME280;43675;50.030;21.952;2023-03-14T07:42:15;97088.05;;;11.97;42.27
57847;BME280;43675;50.030;21.952;2023-03-14T07:44:42;97080.31;;;12.06;42.23
57847;BME280;43675;50.030;21.952;2023-03-14T07:47:08;97070.07;;;12.14;42.14
57847;BME280;43675;50.030;21.952;2023-03-14T07:49:35;97064.61;;;12.22;42.15
57847;BME280;43675;50.030;21.952;2023-03-14T07:52:01;97066.89;;;12.27;41.94
57847;BME280;43675;50.030;21.952;2023-03-14T07:54:28;97065.95;;;12.35;41.93
57847;BME280;43675;50.030;21.952;2023-03-14T07:56:55;97058.48;;;12.39;41.78
57847;BME280;43675;50.030;21.952;2023-03-14T07:59:21;97060.42;;;12.39;41.72
57847;BME280;43675;50.030;21.952;2023-03-14T08:01:48;97056.08;;;12.43;41.81
57847;BME280;43675;50.030;21.952;2023-03-14T08:04:14;97059.10;;;12.49;41.88
57847;BME280;43675;50.030;21.952;2023-03-14T08:06:41;97045.06;;;12.54;41.72
57847;BME280;43675;50.030;21.952;2023-03-14T08:09:07;97042.42;;;12.60;41.76
57847;BME280;43675;50.030;21.952;2023-03-14T08:11:34;97041.91;;;12.71;41.74
57847;BME280;43675;50.030;21.952;2023-03-14T08:14:01;97035.67;;;12.83;41.60
57847;BME280;43675;50.030;21.952;2023-03-14T08:16:27;97033.52;;;12.91;41.51
57847;BME280;43675;50.030;21.952;2023-03-14T08:18:54;97033.52;;;12.99;41.62
57847;BME280;43675;50.030;21.952;2023-03-14T08:21:20;97033.47;;;13.07;41.60
57847;BME280;43675;50.030;21.952;2023-03-14T08:23:47;97034.58;;;13.17;41.44
57847;BME280;43675;50.030;21.952;2023-03-14T08:26:13;97032.68;;;13.32;41.51
57847;BME280;43675;50.030;21.952;2023-03-14T08:28:40;97029.74;;;13.47;41.47
57847;BME280;43675;50.030;21.952;2023-03-14T08:31:07;97029.93;;;13.62;41.27
57847;BME280;43675;50.030;21.952;2023-03-14T08:33:33;97042.39;;;13.78;41.06
57847;BME280;43675;50.030;21.952;2023-03-14T08:36:00;97032.24;;;13.94;40.89
57847;BME280;43675;50.030;21.952;2023-03-14T08:38:27;97022.00;;;14.08;40.68
57847;BME280;43675;50.030;21.952;2023-03-14T08:41:01;97024.01;;;14.31;40.48
57847;BME280;43675;50.030;21.952;2023-03-14T08:43:28;97020.73;;;14.49;40.34
57847;BME280;43675;50.030;21.952;2023-03-14T08:45:58;97029.48;;;14.61;40.82
57847;BME280;43675;50.030;21.952;2023-03-14T08:48:25;97031.06;;;14.65;40.47
57847;BME280;43675;50.030;21.952;2023-03-14T08:50:55;97029.28;;;14.71;40.47
57847;BME280;43675;50.030;21.952;2023-03-14T08:53:22;97023.11;;;14.74;40.31
57847;BME280;43675;50.030;21.952;2023-03-14T08:55:55;97021.23;;;14.72;40.22
57847;BME280;43675;50.030;21.952;2023-03-14T08:58:21;97013.59;;;14.77;40.03
57847;BME280;43675;50.030;21.952;2023-03-14T09:00:48;97024.48;;;14.71;39.82
57847;BME280;43675;50.030;21.952;2023-03-14T09:03:15;97022.58;;;14.48;39.94
57847;BME280;43675;50.030;21.952;2023-03-14T09:05:41;97027.59;;;14.26;40.20
57847;BME280;43675;50.030;21.952;2023-03-14T09:08:08;97025.48;;;14.10;40.36
57847;BME280;43675;50.030;21.952;2023-03-14T09:10:34;97033.47;;;14.00;40.38
57847;BME280;43675;50.030;21.952;2023-03-14T09:13:01;97035.33;;;13.94;40.26
57847;BME280;43675;50.030;21.952;2023-03-14T09:15:27;97045.00;;;13.91;40.33
57847;BME280;43675;50.030;21.952;2023-03-14T09:17:54;97031.02;;;13.95;40.35
57847;BME280;43675;50.030;21.952;2023-03-14T09:20:20;97024.39;;;14.05;40.30
57847;BME280;43675;50.030;21.952;2023-03-14T09:22:47;97028.77;;;14.14;40.06
57847;BME280;43675;50.030;21.952;2023-03-14T09:25:14;97018.31;;;14.24;39.87
57847;BME280;43675;50.030;21.952;2023-03-14T09:27:41;97033.80;;;14.34;39.90
57847;BME280;43675;50.030;21.952;2023-03-14T09:30:08;97035.11;;;14.46;39.77
57847;BME280;43675;50.030;21.952;2023-03-14T09:32:34;97034.36;;;14.56;39.55
57847;BME280;43675;50.030;21.952;2023-03-14T09:35:01;97031.00;;;14.67;39.70
57847;BME280;43675;50.030;21.952;2023-03-14T09:37:28;97024.98;;;14.76;39.56
57847;BME280;43675;50.030;21.952;2023-03-14T09:39:54;97028.77;;;14.77;39.23
57847;BME280;43675;50.030;21.952;2023-03-14T09:42:24;97025.98;;;14.72;39.15
57847;BME280;43675;50.030;21.952;2023-03-14T09:45:06;97043.27;;;14.64;39.27
57847;BME280;43675;50.030;21.952;2023-03-14T09:47:34;97030.00;;;14.53;39.39
57847;BME280;43675;50.030;21.952;2023-03-14T09:50:02;97046.08;;;14.44;39.37
57847;BME280;43675;50.030;21.952;2023-03-14T09:52:33;97042.36;;;14.27;39.49
57847;BME280;43675;50.030;21.952;2023-03-14T09:55:04;97042.70;;;14.11;39.64
57847;BME280;43675;50.030;21.952;2023-03-14T09:57:33;97045.29;;;14.11;39.66
57847;BME280;43675;50.030;21.952;2023-03-14T10:00:04;97046.36;;;14.14;39.52
57847;BME280;43675;50.030;21.952;2023-03-14T10:02:35;97044.48;;;14.22;39.62
57847;BME280;43675;50.030;21.952;2023-03-14T10:05:07;97045.11;;;14.27;39.58
57847;BME280;43675;50.030;21.952;2023-03-14T10:07:34;97047.02;;;14.38;39.47
57847;BME280;43675;50.030;21.952;2023-03-14T10:10:08;97032.07;;;14.49;39.31
57847;BME280;43675;50.030;21.952;2023-03-14T10:12:37;97022.98;;;14.60;39.24
57847;BME280;43675;50.030;21.952;2023-03-14T10:15:09;97027.66;;;14.73;39.06
57847;BME280;43675;50.030;21.952;2023-03-14T10:18:23;97013.20;;;14.84;38.99
57847;BME280;43675;50.030;21.952;2023-03-14T10:20:37;97028.73;;;15.01;38.96
57847;BME280;43675;50.030;21.952;2023-03-14T10:25:37;97026.23;;;15.41;38.45
57847;BME280;43675;50.030;21.952;2023-03-14T10:28:05;97020.25;;;15.63;38.23
57847;BME280;43675;50.030;21.952;2023-03-14T10:30:45;97023.67;;;15.80;37.94
57847;BME280;43675;50.030;21.952;2023-03-14T10:33:24;97020.35;;;15.93;37.82
57847;BME280;43675;50.030;21.952;2023-03-14T10:35:59;97034.29;;;15.85;37.87
57847;BME280;43675;50.030;21.952;2023-03-14T10:38:31;97042.14;;;15.84;37.83
57847;BME280;43675;50.030;21.952;2023-03-14T10:40:59;97056.71;;;15.73;37.93
57847;BME280;43675;50.030;21.952;2023-03-14T10:43:30;97061.84;;;15.73;37.87
57847;BME280;43675;50.030;21.952;2023-03-14T10:46:18;97056.92;;;15.79;37.82
57847;BME280;43675;50.030;21.952;2023-03-14T10:48:45;97060.31;;;15.90;37.89
57847;BME280;43675;50.030;21.952;2023-03-14T10:51:18;97059.80;;;15.96;37.64
57847;BME280;43675;50.030;21.952;2023-03-14T10:56:17;97065.28;;;15.85;37.50
57847;BME280;43675;50.030;21.952;2023-03-14T10:58:56;97072.81;;;15.64;37.59
57847;BME280;43675;50.030;21.952;2023-03-14T11:01:40;97066.31;;;15.38;37.99
57847;BME280;43675;50.030;21.952;2023-03-14T11:07:02;97060.34;;;14.95;38.55
57847;BME280;43675;50.030;21.952;2023-03-14T11:14:53;97045.05;;;14.72;39.17
57847;BME280;43675;50.030;21.952;2023-03-14T11:17:33;97049.28;;;14.76;39.21
57847;BME280;43675;50.030;21.952;2023-03-14T11:20:31;97045.63;;;14.83;39.28
57847;BME280;43675;50.030;21.952;2023-03-14T11:23:21;97048.80;;;14.93;39.18
57847;BME280;43675;50.030;21.952;2023-03-14T11:28:56;97051.23;;;15.13;39.13
57847;BME280;43675;50.030;21.952;2023-03-14T11:31:31;97038.48;;;15.20;38.97
57847;BME280;43675;50.030;21.952;2023-03-14T11:39:59;97043.72;;;15.51;39.08
57847;BME280;43675;50.030;21.952;2023-03-14T11:42:26;97043.79;;;15.57;39.10
57847;BME280;43675;50.030;21.952;2023-03-14T11:44:55;97036.09;;;15.65;39.11
57847;BME280;43675;50.030;21.952;2023-03-14T11:47:34;97036.71;;;15.67;39.04
57847;BME280;43675;50.030;21.952;2023-03-14T11:50:18;97031.44;;;15.69;39.11
57847;BME280;43675;50.030;21.952;2023-03-14T11:52:54;97033.54;;;15.70;39.24
57847;BME280;43675;50.030;21.952;2023-03-14T11:55:37;97031.77;;;15.73;39.14
57847;BME280;43675;50.030;21.952;2023-03-14T11:58:26;97022.75;;;15.77;39.00
57847;BME280;43675;50.030;21.952;2023-03-14T12:00:55;97010.86;;;15.81;39.05
57847;BME280;43675;50.030;21.952;2023-03-14T12:06:48;97013.14;;;15.80;39.03
57847;BME280;43675;50.030;21.952;2023-03-14T12:09:08;97016.96;;;15.86;39.08
57847;BME280;43675;50.030;21.952;2023-03-14T12:14:36;97007.27;;;16.00;38.78
57847;BME280;43675;50.030;21.952;2023-03-14T12:22:36;97018.25;;;15.91;38.76
57847;BME280;43675;50.030;21.952;2023-03-14T12:30:23;97006.48;;;15.61;39.04
57847;BME280;43675;50.030;21.952;2023-03-14T12:43:41;97003.52;;;15.75;39.35
57847;BME280;43675;50.030;21.952;2023-03-14T12:51:37;96991.34;;;15.80;38.97
57847;BME280;43675;50.030;21.952;2023-03-14T12:57:09;96995.72;;;15.84;39.14
57847;BME280;43675;50.030;21.952;2023-03-14T13:00:30;97000.60;;;15.89;39.15
57847;BME280;43675;50.030;21.952;2023-03-14T13:03:02;96992.48;;;15.93;39.06
57847;BME280;43675;50.030;21.952;2023-03-14T13:05:52;96997.38;;;15.91;39.06
57847;BME280;43675;50.030;21.952;2023-03-14T13:08:43;97009.06;;;15.78;39.11
57847;BME280;43675;50.030;21.952;2023-03-14T13:11:16;97008.27;;;15.68;39.34
57847;BME280;43675;50.030;21.952;2023-03-14T13:14:01;97003.30;;;15.60;39.35
57847;BME280;43675;50.030;21.952;2023-03-14T13:16:28;97011.96;;;15.47;39.38
57847;BME280;43675;50.030;21.952;2023-03-14T13:19:11;97006.56;;;15.39;39.59
57847;BME280;43675;50.030;21.952;2023-03-14T13:21:40;97005.15;;;15.35;39.65
57847;BME280;43675;50.030;21.952;2023-03-14T13:24:21;97010.41;;;15.39;39.61
57847;BME280;43675;50.030;21.952;2023-03-14T13:26:49;97007.54;;;15.45;39.89
57847;BME280;43675;50.030;21.952;2023-03-14T13:29:35;97009.06;;;15.52;39.84
57847;BME280;43675;50.030;21.952;2023-03-14T13:32:16;97015.20;;;15.58;39.84
57847;BME280;43675;50.030;21.952;2023-03-14T13:34:43;97017.54;;;15.64;39.77
57847;BME280;43675;50.030;21.952;2023-03-14T13:37:19;97015.25;;;15.71;39.69
57847;BME280;43675;50.030;21.952;2023-03-14T13:39:50;97013.01;;;15.72;39.77
57847;BME280;43675;50.030;21.952;2023-03-14T13:42:17;97013.80;;;15.69;39.65
57847;BME280;43675;50.030;21.952;2023-03-14T13:44:45;97016.64;;;15.61;39.67
57847;BME280;43675;50.030;21.952;2023-03-14T13:47:18;97014.27;;;15.50;39.73
57847;BME280;43675;50.030;21.952;2023-03-14T13:49:46;97019.84;;;15.36;39.80
57847;BME280;43675;50.030;21.952;2023-03-14T13:52:40;97020.58;;;15.26;40.08
57847;BME280;43675;50.030;21.952;2023-03-14T13:55:16;97018.73;;;15.22;40.28
57847;BME280;43675;50.030;21.952;2023-03-14T13:57:51;97019.61;;;15.15;40.30
57847;BME280;43675;50.030;21.952;2023-03-14T14:00:26;97025.20;;;15.05;40.38
57847;BME280;43675;50.030;21.952;2023-03-14T14:02:57;97030.15;;;15.00;40.54
57847;BME280;43675;50.030;21.952;2023-03-14T14:05:28;97026.58;;;14.95;40.65
57847;BME280;43675;50.030;21.952;2023-03-14T14:07:56;97035.14;;;14.90;40.79
57847;BME280;43675;50.030;21.952;2023-03-14T14:10:22;97036.69;;;14.86;41.00
57847;BME280;43675;50.030;21.952;2023-03-14T14:12:59;97032.14;;;14.81;41.21